createdAt,value
2022-12-11T20:09:51.691Z,1003.34
2022-12-11T20:10:52.660Z,1003.30
2022-12-11T20:11:52.653Z,1003.29
2022-12-11T20:12:52.708Z,1003.27
2022-12-11T20:13:52.665Z,1003.25
2022-12-11T20:14:52.768Z,1003.29
2022-12-11T20:15:52.672Z,1003.29
2022-12-11T20:17:52.664Z,1003.29
2022-12-11T20:18:52.648Z,1003.27
2022-12-11T20:19:52.692Z,1003.24
2022-12-11T20:20:52.584Z,1003.26
2022-12-11T20:21:52.586Z,1003.23
2022-12-11T20:22:52.552Z,1003.25
2022-12-11T20:23:52.525Z,1003.26
2022-12-11T20:24:52.544Z,1003.28
2022-12-11T20:25:58.716Z,1003.27
2022-12-11T20:26:52.527Z,1003.32
2022-12-11T20:27:52.522Z,1003.27
2022-12-11T20:28:52.499Z,1003.28
2022-12-11T20:29:52.504Z,1003.28
2022-12-11T20:30:52.460Z,1003.30
2022-12-11T20:31:52.459Z,1003.31
2022-12-11T20:32:52.433Z,1003.32
2022-12-11T20:33:52.413Z,1003.32
2022-12-11T20:34:52.472Z,1003.28
2022-12-11T20:35:52.448Z,1003.30
2022-12-11T20:36:52.386Z,1003.35
2022-12-11T20:37:52.375Z,1003.31
2022-12-11T20:38:52.409Z,1003.32
2022-12-11T20:39:53.109Z,1003.32
2022-12-11T20:40:52.349Z,1003.36
2022-12-11T20:41:52.362Z,1003.36
2022-12-11T20:42:52.326Z,1003.30
2022-12-11T20:43:52.361Z,1003.33
2022-12-11T20:44:52.334Z,1003.31
2022-12-11T20:45:52.369Z,1003.36
2022-12-11T20:46:52.352Z,1003.29
2022-12-11T20:47:52.285Z,1003.27
2022-12-11T20:48:52.286Z,1003.24
2022-12-11T20:49:52.281Z,1003.28
2022-12-11T20:50:52.282Z,1003.27
2022-12-11T20:51:52.220Z,1003.29
2022-12-11T20:52:52.213Z,1003.29
2022-12-11T20:53:52.207Z,1003.29
2022-12-11T20:54:52.237Z,1003.29
2022-12-11T20:55:52.186Z,1003.26
2022-12-11T20:56:52.151Z,1003.26
2022-12-11T20:57:52.174Z,1003.25
2022-12-11T20:58:52.164Z,1003.25
2022-12-11T20:59:52.221Z,1003.26
2022-12-11T21:00:52.252Z,1003.32
2022-12-11T21:01:52.154Z,1003.27
2022-12-11T21:02:52.107Z,1003.28
2022-12-11T21:03:52.124Z,1003.29
2022-12-11T21:04:52.112Z,1003.27
2022-12-11T21:05:52.080Z,1003.28
2022-12-11T21:06:52.050Z,1003.22
2022-12-11T21:07:52.137Z,1003.24
2022-12-11T21:08:52.058Z,1003.21
2022-12-11T21:09:52.082Z,1003.26
2022-12-11T21:10:52.048Z,1003.31
2022-12-11T21:11:52.018Z,1003.32
2022-12-11T21:12:51.994Z,1003.29
2022-12-11T21:13:51.987Z,1003.30
2022-12-11T21:14:52.160Z,1003.25
2022-12-11T21:15:51.949Z,1003.24
2022-12-11T21:16:52.105Z,1003.26
2022-12-11T21:17:51.947Z,1003.34
2022-12-11T21:18:52.008Z,1003.26
2022-12-11T21:19:52.043Z,1003.27
2022-12-11T21:20:52.023Z,1003.26
2022-12-11T21:21:51.956Z,1003.24
2022-12-11T21:22:51.887Z,1003.26
2022-12-11T21:23:51.889Z,1003.30
2022-12-11T21:24:51.992Z,1003.31
2022-12-11T21:25:51.832Z,1003.27
2022-12-11T21:26:51.850Z,1003.29
2022-12-11T21:27:51.847Z,1003.26
2022-12-11T21:28:51.834Z,1003.30
2022-12-11T21:29:51.980Z,1003.32
2022-12-11T21:30:51.858Z,1003.36
2022-12-11T21:31:51.839Z,1003.30
2022-12-11T21:32:51.780Z,1003.25
2022-12-11T21:33:51.816Z,1003.31
2022-12-11T21:34:51.812Z,1003.30
2022-12-11T21:35:51.839Z,1003.28
2022-12-11T21:36:51.797Z,1003.33
2022-12-11T21:37:51.757Z,1003.28
2022-12-11T21:38:51.705Z,1003.26
2022-12-11T21:39:51.705Z,1003.24
2022-12-11T21:40:51.685Z,1003.26
2022-12-11T21:41:51.674Z,1003.28
2022-12-11T21:42:51.710Z,1003.28
2022-12-11T21:45:06.972Z,1003.28
2022-12-11T21:45:59.878Z,1003.30
2022-12-11T21:46:05.773Z,1003.27
2022-12-11T21:46:51.701Z,1003.23
2022-12-11T21:47:51.609Z,1003.24
2022-12-11T21:48:51.666Z,1003.26
2022-12-11T21:49:51.675Z,1003.22
2022-12-11T21:50:51.670Z,1003.23
2022-12-11T21:51:51.554Z,1003.21
2022-12-11T21:52:51.548Z,1003.21
2022-12-11T21:53:51.526Z,1003.19
2022-12-11T21:54:51.685Z,1003.23
2022-12-11T21:55:51.492Z,1003.24
2022-12-11T21:56:51.508Z,1003.22
2022-12-11T21:57:51.527Z,1003.26
2022-12-11T21:58:51.532Z,1003.24
2022-12-11T21:59:51.523Z,1003.26
2022-12-11T22:00:51.499Z,1003.23
2022-12-11T22:01:51.483Z,1003.26
2022-12-11T22:02:51.466Z,1003.23
2022-12-11T22:03:51.413Z,1003.23
2022-12-11T22:04:51.423Z,1003.27
2022-12-11T22:05:51.398Z,1003.28
2022-12-11T22:06:51.451Z,1003.25
2022-12-11T22:07:51.450Z,1003.32
2022-12-11T22:08:51.437Z,1003.33
2022-12-11T22:09:51.481Z,1003.37
2022-12-11T22:10:51.412Z,1003.37
2022-12-11T22:11:55.168Z,1003.35
2022-12-11T22:12:51.323Z,1003.39
2022-12-11T22:13:51.342Z,1003.38
2022-12-11T22:14:51.405Z,1003.40
2022-12-11T22:15:51.295Z,1003.41
2022-12-11T22:16:51.386Z,1003.39
2022-12-11T22:17:51.373Z,1003.38
2022-12-11T22:18:51.311Z,1003.43
2022-12-11T22:19:51.323Z,1003.45
2022-12-11T22:20:51.256Z,1003.45
2022-12-11T22:21:51.331Z,1003.42
2022-12-11T22:22:51.222Z,1003.41
2022-12-11T22:23:51.217Z,1003.40
2022-12-11T22:24:51.217Z,1003.40
2022-12-11T22:25:51.249Z,1003.41
2022-12-11T22:26:51.199Z,1003.39
2022-12-11T22:27:51.238Z,1003.41
2022-12-11T22:28:51.135Z,1003.45
2022-12-11T22:29:51.139Z,1003.44
2022-12-11T22:30:51.223Z,1003.41
2022-12-11T22:31:51.113Z,1003.42
2022-12-11T22:32:51.080Z,1003.45
2022-12-11T22:33:51.151Z,1003.45
2022-12-11T22:34:51.110Z,1003.49
2022-12-11T22:35:51.067Z,1003.45
2022-12-11T22:36:51.102Z,1003.48
2022-12-11T22:37:51.042Z,1003.48
2022-12-11T22:38:51.040Z,1003.46
2022-12-11T22:39:51.039Z,1003.46
2022-12-11T22:40:51.005Z,1003.48
2022-12-11T22:41:51.004Z,1003.47
2022-12-11T22:42:50.986Z,1003.44
2022-12-11T22:43:50.980Z,1003.47
2022-12-11T22:44:50.996Z,1003.46
2022-12-11T22:45:50.992Z,1003.44
2022-12-11T22:46:50.976Z,1003.44
2022-12-11T22:47:50.965Z,1003.44
2022-12-11T22:48:50.891Z,1003.39
2022-12-11T22:49:50.974Z,1003.41
2022-12-11T22:50:50.890Z,1003.41
2022-12-11T22:51:50.895Z,1003.42
2022-12-11T22:52:50.877Z,1003.39
2022-12-11T22:53:50.912Z,1003.39
2022-12-11T22:54:50.879Z,1003.42
2022-12-11T22:55:50.875Z,1003.40
2022-12-11T22:56:50.825Z,1003.45
2022-12-11T22:57:50.851Z,1003.42
2022-12-11T22:58:50.831Z,1003.43
2022-12-11T22:59:50.842Z,1003.41
2022-12-11T23:00:50.803Z,1003.43
2022-12-11T23:01:50.782Z,1003.41
2022-12-11T23:02:50.929Z,1003.40
2022-12-11T23:03:50.840Z,1003.42
2022-12-11T23:04:50.789Z,1003.43
2022-12-11T23:05:50.768Z,1003.44
2022-12-11T23:06:50.695Z,1003.40
2022-12-11T23:07:50.833Z,1003.41
2022-12-11T23:08:50.722Z,1003.43
2022-12-11T23:09:50.690Z,1003.43
2022-12-11T23:10:50.648Z,1003.46
2022-12-11T23:11:50.639Z,1003.48
2022-12-11T23:12:50.713Z,1003.51
2022-12-11T23:13:50.645Z,1003.51
2022-12-11T23:14:50.641Z,1003.55
2022-12-11T23:15:50.639Z,1003.54
2022-12-11T23:16:50.668Z,1003.57
2022-12-11T23:17:50.611Z,1003.57
2022-12-11T23:18:50.588Z,1003.54
2022-12-11T23:19:50.620Z,1003.51
2022-12-11T23:20:50.566Z,1003.49
2022-12-11T23:21:50.534Z,1003.52
2022-12-11T23:22:50.527Z,1003.50
2022-12-11T23:23:50.512Z,1003.49
2022-12-11T23:24:50.551Z,1003.49
2022-12-11T23:25:50.481Z,1003.51
2022-12-11T23:26:50.481Z,1003.52
2022-12-11T23:27:50.454Z,1003.50
2022-12-11T23:28:50.467Z,1003.51
2022-12-11T23:29:50.490Z,1003.55
2022-12-11T23:30:50.573Z,1003.50
2022-12-11T23:31:50.445Z,1003.52
2022-12-11T23:32:50.415Z,1003.53
2022-12-11T23:33:50.417Z,1003.50
2022-12-11T23:34:50.424Z,1003.53
2022-12-11T23:35:50.400Z,1003.53
2022-12-11T23:36:50.387Z,1003.51
2022-12-11T23:37:50.381Z,1003.56
2022-12-11T23:38:54.546Z,1003.56
2022-12-11T23:39:50.386Z,1003.59
2022-12-11T23:40:50.340Z,1003.57
2022-12-11T23:41:50.321Z,1003.58
2022-12-11T23:42:50.305Z,1003.54
2022-12-11T23:43:50.323Z,1003.59
2022-12-11T23:44:50.343Z,1003.59
2022-12-11T23:45:50.302Z,1003.56
2022-12-11T23:46:51.006Z,1003.54
2022-12-11T23:47:50.230Z,1003.55
2022-12-11T23:48:50.232Z,1003.53
2022-12-11T23:49:50.256Z,1003.57
2022-12-11T23:50:50.320Z,1003.57
2022-12-11T23:51:50.210Z,1003.52
2022-12-11T23:52:50.237Z,1003.55
2022-12-11T23:53:50.169Z,1003.57
2022-12-11T23:54:50.190Z,1003.54
2022-12-11T23:55:50.135Z,1003.54
2022-12-11T23:56:50.139Z,1003.56
2022-12-11T23:57:50.112Z,1003.57
2022-12-11T23:58:50.104Z,1003.60
2022-12-11T23:59:50.147Z,1003.56
